Warning: Javascript must be enabled to use all the features on this page!


Page Loading - Please Wait...

Click to hideNews Bulletins
  • Have your voice heard. Have a few minutes? We're surveying users about their experience with Water Data for the Nation (WDFN). Please take a few minutes to complete our online survey.
  • See the Water Data for the Nation Blog for the latest news and updates.

Peak Streamflow for the Nation

USGS 02226000 ALTAMAHA RIVER AT DOCTORTOWN, GA

Wayne County, Georgia
Hydrologic Unit Code 03070106
Latitude  31°39'16.8", Longitude  81°49'39" NAD83
Drainage area 13,600.00  square miles
Contributing drainage area 13,600  square miles
Gage datum 23.6 feet above NAVD88
Output formats
Table
Graph
Tab-separated file
peakfq (watstore) format
Reselect output format
Water
Year
Date Gage
Height
(feet)
Stream-
flow
(cfs)
1925 1925-01-23 18.60 300,000
1926 1926-02-04 12.40 53,900
1927 1927-08-02 10.60 23,000
1928 1928-08-25 15.00 126,000
1929 1929-03-13 16.30 179,000
1930 1929-10-13 15.20 133,000
1931 1931-05-18 11.10 32,300
1932 1932-01-21 11.40 36,800
1933 1933-03-04 12.10 46,400
1934 1934-03-17 12.10 46,400
1935 1935-09-15 10.30 21,600
1936 1936-04-18 16.00 178,000
1937 1937-05-13 12.10 47,800
1938 1938-04-19 13.00 68,000
1939 1939-03-11 14.20 98,000
1940 1940-03-03 11.30 35,300
1941 1941-07-26 10.70 27,500
1942 1942-04-03 14.00 89,500
1943 1943-04-02 13.30 71,100
1944 1944-04-02 14.50 112,000
1945 1945-05-10 11.30 35,200
1946 1946-01-22 13.00 71,000
1947 1947-03-21 13.00 71,000
1948 1948-04-04 14.00 92,500
1949 1948-12-12 14.80 118,000
1950 1950-03-22 10.30 23,400
1951 1951-04-04 10.80 29,000
1952 1952-03-18 13.20 71,400
1953 1953-05-16 13.00 66,700
1954 1953-12-30 11.60 39,600
1955 1955-04-26 10.20 22,400
1956 1956-04-01 11.10 32,700
1957 1957-04-11 11.00 31,400
1958 1958-03-15 12.40 53,700
1959 1959-03-16 11.90 44,300
1960 1960-04-12 13.90 89,600
1961 1961-03-10 13.60 81,400
1962 1962-03-10 12.40 53,700
1963 1963-02-04 12.40 53,700
1964 1964-04-20 13.90 79,000
1965 1965-02-23 13.30 66,000
1966 1966-03-12 14.84 110,000
1967 1967-01-16 12.44 51,400
1968 1968-01-26 10.61 26,000
1969 1969-05-04 11.37 34,700
1970 1970-04-06 14.04 79,000
1971 1971-03-16 14.76 96,200
1972 1972-01-25 13.82 73,700
1973 1973-02-14 13.38 63,600
1974 1974-02-28 12.60 48,600
1975 1975-03-28 14.71 104,000
1976 1976-03-31 12.90 60,800
1977 1977-04-03 12.65 55,500
1978 1978-02-07 14.16 90,000
1979 1979-03-08 14.17 90,200
1980 1980-03-23 14.53 99,200
1981 1981-02-26 11.59 37,800
1982 1982-02-17 12.89 60,600
1983 1983-04-21 13.30 69,300
1984 1984-03-11 12.97 62,400
1985 1985-02-19 12.18 47,000
1986 1986-02-15 11.86 41,800
1987 1987-01-28 13.58 75,600
1988 1988-03-16 10.36 23,700
1989 1989-04-23 11.14 31,900
1990 1990-03-31 13.36 70,600
1991 1991-03-10 13.79 80,700
1992 1992-03-01 11.85 41,700
1993 1993-01-17 14.21 91,700
1994 1994-07-19 14.59 96,900
1995 1995-02-28 14.02 82,400
1996 1996-02-15 12.99 62,800
1997 1997-03-01 12.75 57,700
1998 1998-03-19 15.55 135,000
1999 1999-02-15 11.12 31,600
2000 2000-03-31 10.26 22,700
2001 2001-03-28 12.85 59,800
2002 2002-04-11 8.82 12,300
2003 2003-03-25 13.17 66,500
2004 2004-09-10 12.23 47,900
2005 2005-04-07 14.41 97,400
2006 2006-03-05 10.68 26,800
2007 2007-03-16 11.02 30,400
2008 2008-02-27 11.27 33,500
2009 2009-04-11 14.58 89,200
2010 2009-12-22 13.74 70,400
2011 2011-02-18 10.78 27,300
2012 2012-03-10 8.69 11,500
2013 2013-03-02 13.56 66,900
2014 2014-04-23 12.71 51,800
2015 2015-05-02 11.99 41,200
2016 2016-01-08 14.70 92,200
2017 2017-01-26 11.78 38,500
2018 2018-06-10 10.69 26,400
2019 2019-01-15 13.06 57,600
2020 2020-03-01 14.99 99,700
2021 2021-02-22 13.42 64,200